createdAt,value
2018-05-18T00:00:47.570Z,0.00
2018-05-18T00:01:47.496Z,0.00
2018-05-18T00:02:47.476Z,0.00
2018-05-18T00:03:47.458Z,0.00
2018-05-18T00:04:47.452Z,0.00
2018-05-18T00:05:47.575Z,0.00
2018-05-18T00:06:47.715Z,0.00
2018-05-18T00:07:47.393Z,0.00
2018-05-18T00:08:47.385Z,0.00
2018-05-18T00:09:47.455Z,0.00
2018-05-18T00:10:47.393Z,0.00
2018-05-18T00:11:47.375Z,0.00
2018-05-18T00:12:47.317Z,0.00
2018-05-18T00:13:47.586Z,0.00
2018-05-18T00:14:47.271Z,0.00
2018-05-18T00:15:48.059Z,0.00
2018-05-18T00:16:47.341Z,0.00
2018-05-18T00:17:47.218Z,0.00
2018-05-18T00:18:47.214Z,0.00
2018-05-18T00:19:47.178Z,0.00
2018-05-18T00:20:47.471Z,0.00
2018-05-18T00:22:47.176Z,0.00
2018-05-18T00:23:47.156Z,0.00
2018-05-18T00:24:47.254Z,0.00
2018-05-18T00:25:47.081Z,0.00
2018-05-18T00:27:47.339Z,0.00
2018-05-18T00:28:47.030Z,0.00
2018-05-18T00:29:47.023Z,0.00
2018-05-18T00:30:47.044Z,0.00
2018-05-18T00:31:47.121Z,0.00
2018-05-18T00:32:46.967Z,0.00
2018-05-18T00:33:46.933Z,0.00
2018-05-18T00:34:47.224Z,0.00
2018-05-18T00:35:46.908Z,0.00
2018-05-18T00:36:46.888Z,0.00
2018-05-18T00:37:46.913Z,0.00
2018-05-18T00:38:46.946Z,0.00
2018-05-18T00:40:47.123Z,0.00
2018-05-18T00:41:46.798Z,0.00
2018-05-18T00:42:46.777Z,0.00
2018-05-18T00:43:46.818Z,0.00
2018-05-18T00:44:46.851Z,0.00
2018-05-18T00:45:46.830Z,0.00
2018-05-18T00:46:46.704Z,0.00
2018-05-18T00:47:46.996Z,0.00
2018-05-18T00:48:46.711Z,0.00
2018-05-18T00:49:46.656Z,0.00
2018-05-18T00:53:46.939Z,0.00
2018-05-18T00:54:46.622Z,0.00
2018-05-18T00:55:46.656Z,0.00
2018-05-18T00:56:46.591Z,0.00
2018-05-18T00:57:46.524Z,0.00
2018-05-18T00:58:46.501Z,0.00
2018-05-18T00:59:46.776Z,0.00
2018-05-18T01:00:46.515Z,0.00
2018-05-18T01:01:46.489Z,0.00
2018-05-18T01:02:46.429Z,0.00
2018-05-18T01:03:46.410Z,0.00
2018-05-18T01:04:46.388Z,0.00
2018-05-18T01:05:46.673Z,0.00
2018-05-18T01:06:46.408Z,0.00
2018-05-18T01:07:46.390Z,0.00
2018-05-18T01:08:46.571Z,0.00
2018-05-18T01:09:46.305Z,0.00
2018-05-18T01:11:46.559Z,0.00
2018-05-18T01:12:46.352Z,0.00
2018-05-18T01:13:46.279Z,0.00
2018-05-18T01:14:46.216Z,0.00
2018-05-18T01:15:46.213Z,0.00
2018-05-18T01:16:46.181Z,0.00
2018-05-18T01:17:46.456Z,0.00
2018-05-18T01:18:46.285Z,0.00
2018-05-18T01:19:46.117Z,0.00
2018-05-18T01:20:46.142Z,0.00
2018-05-18T01:21:46.077Z,0.00
2018-05-18T01:24:46.385Z,0.00
2018-05-18T01:25:46.058Z,0.00
2018-05-18T01:26:45.992Z,0.00
2018-05-18T01:27:45.976Z,0.00
2018-05-18T01:28:45.968Z,0.00
2018-05-18T01:29:45.942Z,0.00
2018-05-18T01:30:45.966Z,0.00
2018-05-18T01:31:46.253Z,0.00
2018-05-18T01:32:45.890Z,0.00
2018-05-18T01:33:45.872Z,0.00
2018-05-18T01:36:45.866Z,0.00
2018-05-18T01:37:45.845Z,0.00
2018-05-18T01:38:46.071Z,0.00
2018-05-18T01:40:45.736Z,0.00
2018-05-18T01:41:45.720Z,0.00
2018-05-18T01:43:45.728Z,0.00
2018-05-18T01:44:45.774Z,0.00
2018-05-18T01:45:46.004Z,0.00
2018-05-18T01:46:45.632Z,0.00
2018-05-18T01:47:45.606Z,0.00
2018-05-18T01:48:45.592Z,0.00
2018-05-18T01:49:45.570Z,0.00
2018-05-18T01:50:45.600Z,0.00
2018-05-18T01:51:45.640Z,0.00
2018-05-18T01:52:45.875Z,0.00
2018-05-18T01:53:45.607Z,0.00
2018-05-18T01:54:45.483Z,0.00
2018-05-18T01:55:45.470Z,0.00
2018-05-18T01:56:45.450Z,0.00
2018-05-18T01:57:45.729Z,0.00
2018-05-18T01:58:45.404Z,0.00
2018-05-18T01:59:45.704Z,0.00
2018-05-18T02:00:45.369Z,0.00
2018-05-18T02:01:45.355Z,0.00
2018-05-18T02:03:45.367Z,0.00
2018-05-18T02:05:45.648Z,0.00
2018-05-18T02:06:45.258Z,0.00
2018-05-18T02:07:45.245Z,0.00
2018-05-18T02:08:45.228Z,0.00
2018-05-18T02:09:45.259Z,0.00
2018-05-18T02:10:45.245Z,0.00
2018-05-18T02:11:45.319Z,0.00
2018-05-18T02:12:45.456Z,0.00
2018-05-18T02:13:45.143Z,0.00
2018-05-18T02:14:45.126Z,0.00
2018-05-18T02:15:45.090Z,0.00
2018-05-18T02:16:45.085Z,0.00
2018-05-18T02:17:45.113Z,0.00
2018-05-18T02:18:45.393Z,0.00
2018-05-18T02:19:45.023Z,0.00
2018-05-18T02:20:45.006Z,0.00
2018-05-18T02:21:44.980Z,0.00
2018-05-18T02:22:44.961Z,0.00
2018-05-18T02:23:44.998Z,0.00
2018-05-18T02:25:45.266Z,0.00
2018-05-18T02:26:44.899Z,0.00
2018-05-18T02:27:44.876Z,0.00
2018-05-18T02:28:44.863Z,0.00
2018-05-18T02:30:44.866Z,0.00
2018-05-18T02:31:44.855Z,0.00
2018-05-18T02:33:45.058Z,0.00
2018-05-18T02:34:44.738Z,0.00
2018-05-18T02:35:44.728Z,0.00
2018-05-18T02:37:44.857Z,0.00
2018-05-18T02:38:44.663Z,0.00
2018-05-18T02:39:44.999Z,0.00
2018-05-18T02:40:44.687Z,0.00
2018-05-18T02:41:44.659Z,0.00
2018-05-18T02:43:44.577Z,0.00
2018-05-18T02:44:44.558Z,4.00
2018-05-18T02:45:44.834Z,4.00
2018-05-18T02:46:44.570Z,4.00
2018-05-18T02:47:44.593Z,0.00
2018-05-18T02:48:44.483Z,4.00
2018-05-18T02:49:44.460Z,4.00
2018-05-18T02:50:44.443Z,4.00
2018-05-18T02:51:44.720Z,4.00
2018-05-18T02:52:44.450Z,4.00
2018-05-18T02:53:44.488Z,4.00
2018-05-18T02:54:44.364Z,8.00
2018-05-18T02:55:44.347Z,4.00
2018-05-18T02:56:44.332Z,8.00
2018-05-18T02:57:44.611Z,8.00
2018-05-18T02:58:44.340Z,12.00
2018-05-18T02:59:44.324Z,12.00
2018-05-18T03:01:44.239Z,12.00
2018-05-18T03:02:44.218Z,16.00
2018-05-18T03:03:44.195Z,16.00
2018-05-18T03:04:44.530Z,16.00
2018-05-18T03:05:44.238Z,16.00
2018-05-18T03:06:44.140Z,24.00
2018-05-18T03:07:44.117Z,24.00
2018-05-18T03:08:44.099Z,28.00
2018-05-18T03:09:44.077Z,28.00
2018-05-18T03:10:44.514Z,28.00
2018-05-18T03:11:44.351Z,36.00
2018-05-18T03:12:44.073Z,40.00
2018-05-18T03:13:44.114Z,40.00
2018-05-18T03:14:43.990Z,44.00
2018-05-18T03:15:43.962Z,44.00
2018-05-18T03:16:43.957Z,48.00
2018-05-18T03:17:43.930Z,48.00
2018-05-18T03:18:44.259Z,56.00
2018-05-18T03:20:43.968Z,68.00
2018-05-18T03:21:43.859Z,72.00
2018-05-18T03:23:43.809Z,72.00
2018-05-18T03:24:43.845Z,80.00
2018-05-18T03:25:44.130Z,88.00
2018-05-18T03:26:43.761Z,92.00
2018-05-18T03:27:43.738Z,104.00
2018-05-18T03:28:43.723Z,104.00
2018-05-18T03:29:43.693Z,108.00
2018-05-18T03:30:43.732Z,112.00
2018-05-18T03:31:43.816Z,112.00
2018-05-18T03:32:43.949Z,120.00
2018-05-18T03:33:43.625Z,132.00
2018-05-18T03:34:43.608Z,136.00
2018-05-18T03:35:43.588Z,148.00
2018-05-18T03:36:43.563Z,152.00
2018-05-18T03:37:43.658Z,156.00
2018-05-18T03:38:43.582Z,160.00
2018-05-18T03:39:43.868Z,168.00
2018-05-18T03:40:43.504Z,180.00
2018-05-18T03:41:43.472Z,180.00
2018-05-18T03:42:43.447Z,196.00
2018-05-18T03:43:43.491Z,204.00
2018-05-18T03:44:43.467Z,212.00
2018-05-18T03:45:43.751Z,216.00
2018-05-18T03:46:43.371Z,228.00
2018-05-18T03:47:43.361Z,236.00
2018-05-18T03:48:43.345Z,248.00
2018-05-18T03:49:43.428Z,248.00
2018-05-18T03:50:43.372Z,268.00
2018-05-18T03:51:43.708Z,280.00
2018-05-18T03:52:43.618Z,284.00
2018-05-18T03:53:43.247Z,280.00
2018-05-18T03:54:43.235Z,280.00
2018-05-18T03:55:43.253Z,284.00
2018-05-18T03:56:43.235Z,284.00
2018-05-18T03:57:43.521Z,300.00
2018-05-18T03:58:43.206Z,316.00
2018-05-18T03:59:43.133Z,316.00
2018-05-18T04:00:43.114Z,332.00
2018-05-18T04:01:43.105Z,348.00
2018-05-18T04:02:43.185Z,348.00
2018-05-18T04:03:43.403Z,356.00
2018-05-18T04:04:43.058Z,380.00
2018-05-18T04:05:43.110Z,408.00
2018-05-18T04:06:43.015Z,388.00
2018-05-18T04:07:43.038Z,412.00
2018-05-18T04:08:43.016Z,420.00
2018-05-18T04:09:43.455Z,440.00
2018-05-18T04:10:43.043Z,452.00
2018-05-18T04:11:42.904Z,448.00
2018-05-18T04:12:42.893Z,432.00
2018-05-18T04:13:42.875Z,460.00
2018-05-18T04:14:42.855Z,476.00
2018-05-18T04:15:43.187Z,512.00
2018-05-18T04:17:42.849Z,544.00
2018-05-18T04:18:42.828Z,580.00
2018-05-18T04:19:42.760Z,572.00
2018-05-18T04:20:42.747Z,580.00
2018-05-18T04:21:43.026Z,636.00
2018-05-18T04:22:42.708Z,780.00
2018-05-18T04:23:42.737Z,748.00
2018-05-18T04:24:42.822Z,732.00
2018-05-18T04:25:42.652Z,724.00
2018-05-18T04:26:42.642Z,748.00
2018-05-18T04:27:42.625Z,796.00
2018-05-18T04:28:42.898Z,808.00
2018-05-18T04:29:42.578Z,796.00
2018-05-18T04:30:42.604Z,844.00
2018-05-18T04:31:42.598Z,888.00
2018-05-18T04:32:42.515Z,880.00
2018-05-18T04:33:42.502Z,900.00
2018-05-18T04:34:42.482Z,952.00
2018-05-18T04:35:42.760Z,928.00
2018-05-18T04:36:42.499Z,916.00
2018-05-18T04:37:42.488Z,928.00
2018-05-18T04:38:42.459Z,944.00
2018-05-18T04:39:42.481Z,976.00
2018-05-18T04:40:42.437Z,936.00
2018-05-18T04:41:42.517Z,968.00
2018-05-18T04:42:42.633Z,1016.00
2018-05-18T04:43:42.362Z,1000.00
2018-05-18T04:44:42.342Z,1020.00
2018-05-18T04:45:42.282Z,1012.00
2018-05-18T04:46:42.279Z,1064.00
2018-05-18T04:47:42.243Z,1092.00
2018-05-18T04:48:42.222Z,1204.00
2018-05-18T04:49:42.267Z,1192.00
2018-05-18T04:50:42.241Z,1128.00
2018-05-18T04:51:42.175Z,1160.00
2018-05-18T04:52:42.209Z,1212.00
2018-05-18T04:53:42.228Z,1192.00
2018-05-18T04:55:42.567Z,1212.00
2018-05-18T04:56:42.076Z,1288.00
2018-05-18T04:57:42.064Z,1256.00
2018-05-18T04:58:42.039Z,1308.00
2018-05-18T04:59:42.048Z,1308.00
2018-05-18T05:00:42.071Z,1360.00
2018-05-18T05:01:42.187Z,1372.00
2018-05-18T05:02:42.601Z,1372.00
2018-05-18T05:03:42.801Z,1444.00
2018-05-18T05:04:42.012Z,1444.00
2018-05-18T05:05:42.183Z,1676.00
2018-05-18T05:06:41.905Z,1596.00
2018-05-18T05:07:41.935Z,1516.00
2018-05-18T05:08:41.923Z,1568.00
2018-05-18T05:09:42.278Z,1588.00
2018-05-18T05:10:41.823Z,1540.00
2018-05-18T05:11:41.818Z,1580.00
2018-05-18T05:12:41.887Z,1780.00
2018-05-18T05:13:42.056Z,1768.00
2018-05-18T05:14:42.641Z,1772.00
2018-05-18T05:15:42.092Z,1744.00
2018-05-18T05:16:41.721Z,1772.00
2018-05-18T05:17:42.206Z,1808.00
2018-05-18T05:18:41.812Z,1744.00
2018-05-18T05:19:41.680Z,1752.00
2018-05-18T05:20:41.951Z,1648.00
2018-05-18T05:21:41.637Z,1660.00
2018-05-18T05:22:41.731Z,1736.00
2018-05-18T05:23:41.676Z,1776.00
2018-05-18T05:24:41.578Z,1796.00
2018-05-18T05:28:41.554Z,1848.00
2018-05-18T05:29:41.544Z,1836.00
2018-05-18T05:30:41.517Z,1748.00
2018-05-18T05:31:41.460Z,1736.00
2018-05-18T05:32:41.549Z,1804.00
2018-05-18T05:33:41.717Z,1924.00
2018-05-18T05:34:41.587Z,1868.00
2018-05-18T05:35:41.478Z,1924.00
2018-05-18T05:36:41.458Z,1988.00
2018-05-18T05:37:41.344Z,2052.00
2018-05-18T05:38:41.323Z,2096.00
2018-05-18T05:39:41.619Z,2028.00
2018-05-18T05:40:41.465Z,2056.00
2018-05-18T05:41:41.319Z,2100.00
2018-05-18T05:42:41.329Z,2144.00
2018-05-18T05:43:41.234Z,2100.00
2018-05-18T05:44:41.216Z,2268.00
2018-05-18T05:46:41.486Z,2196.00
2018-05-18T05:47:41.319Z,2280.00
2018-05-18T05:48:41.250Z,2436.00
2018-05-18T05:49:41.465Z,2400.00
2018-05-18T05:50:41.121Z,2440.00
2018-05-18T05:51:41.096Z,2548.00
2018-05-18T05:52:41.381Z,2436.00
2018-05-18T05:53:41.327Z,2488.00
2018-05-18T05:54:41.100Z,2480.00
2018-05-18T05:55:42.411Z,2548.00
2018-05-18T05:56:41.112Z,2592.00
2018-05-18T05:57:41.009Z,2640.00
2018-05-18T05:58:41.172Z,2740.00
2018-05-18T05:59:41.299Z,2704.00
2018-05-18T06:00:40.980Z,2604.00
2018-05-18T06:01:40.980Z,2520.00
2018-05-18T06:02:40.974Z,2528.00
2018-05-18T06:03:40.901Z,2648.00
2018-05-18T06:04:41.101Z,2768.00
2018-05-18T06:05:41.116Z,2644.00
2018-05-18T06:06:41.184Z,2792.00
2018-05-18T06:07:40.995Z,2544.00
2018-05-18T06:08:40.812Z,2608.00
2018-05-18T06:09:40.779Z,2392.00
2018-05-18T06:10:40.971Z,2532.00
2018-05-18T06:11:40.740Z,2660.00
2018-05-18T06:12:40.768Z,2736.00
2018-05-18T06:13:41.053Z,2808.00
2018-05-18T06:14:40.849Z,2652.00
2018-05-18T06:15:40.683Z,2900.00
2018-05-18T06:16:40.656Z,2612.00
2018-05-18T06:17:40.641Z,2840.00
2018-05-18T06:18:40.691Z,2800.00
2018-05-18T06:19:40.657Z,2676.00
2018-05-18T06:20:40.901Z,2764.00
2018-05-18T06:21:40.739Z,2756.00
2018-05-18T06:22:40.579Z,2968.00
2018-05-18T06:23:40.532Z,2892.00
2018-05-18T06:24:40.570Z,3012.00
2018-05-18T06:25:40.595Z,2796.00
2018-05-18T06:26:40.788Z,2924.00
2018-05-18T06:27:40.464Z,3008.00
2018-05-18T06:28:40.463Z,2980.00
2018-05-18T06:29:40.424Z,2920.00
2018-05-18T06:30:40.474Z,3072.00
2018-05-18T06:31:40.447Z,3092.00
2018-05-18T06:32:40.397Z,3300.00
2018-05-18T06:33:40.660Z,3396.00
2018-05-18T06:34:40.354Z,3572.00
2018-05-18T06:36:40.410Z,3320.00
2018-05-18T06:37:40.337Z,3360.00
2018-05-18T06:38:40.328Z,3456.00
2018-05-18T06:39:40.441Z,3476.00
2018-05-18T06:40:40.541Z,3540.00
2018-05-18T06:41:40.242Z,3624.00
2018-05-18T06:42:40.210Z,3388.00
2018-05-18T06:43:40.282Z,3516.00
2018-05-18T06:44:40.219Z,3644.00
2018-05-18T06:45:40.209Z,3616.00
2018-05-18T06:46:40.434Z,3512.00
2018-05-18T06:47:40.123Z,3492.00
2018-05-18T06:48:40.095Z,3828.00
2018-05-18T06:49:40.126Z,3844.00
2018-05-18T06:50:40.209Z,4052.00
2018-05-18T06:51:40.040Z,3984.00
2018-05-18T06:52:40.410Z,4028.00
2018-05-18T06:53:40.016Z,4056.00
2018-05-18T06:54:39.993Z,4172.00
2018-05-18T06:55:39.977Z,4200.00
2018-05-18T06:57:40.090Z,4196.00
2018-05-18T06:58:40.308Z,4324.00
2018-05-18T06:59:39.907Z,4488.00
2018-05-18T07:00:39.884Z,4528.00
2018-05-18T07:01:39.875Z,4728.00
2018-05-18T07:02:39.937Z,4452.00
2018-05-18T07:03:39.989Z,4672.00
2018-05-18T07:04:40.124Z,4264.00
2018-05-18T07:05:39.818Z,4084.00
2018-05-18T07:06:39.792Z,4200.00
2018-05-18T07:07:39.782Z,4388.00
2018-05-18T07:08:39.749Z,4396.00
2018-05-18T07:09:40.199Z,4420.00
2018-05-18T07:10:40.032Z,4348.00
2018-05-18T07:11:39.712Z,4400.00
2018-05-18T07:13:39.665Z,4636.00
2018-05-18T07:14:39.645Z,4336.00
2018-05-18T07:15:39.735Z,4248.00
2018-05-18T07:16:39.711Z,4360.00
2018-05-18T07:17:39.650Z,4568.00
2018-05-18T07:18:39.583Z,4784.00
2018-05-18T07:19:39.568Z,4828.00
2018-05-18T07:20:39.547Z,4752.00
2018-05-18T07:21:39.893Z,4772.00
2018-05-18T07:22:39.566Z,4856.00
2018-05-18T07:23:39.548Z,4836.00
2018-05-18T07:24:39.484Z,5216.00
2018-05-18T07:25:39.460Z,5052.00
2018-05-18T07:26:39.444Z,4952.00
2018-05-18T07:29:39.921Z,4988.00
2018-05-18T07:32:39.457Z,5144.00
2018-05-18T07:33:39.346Z,5760.00
2018-05-18T07:34:39.360Z,5344.00
2018-05-18T07:35:39.740Z,5404.00
2018-05-18T07:36:39.278Z,5576.00
2018-05-18T07:37:39.260Z,5728.00
2018-05-18T07:38:39.263Z,5708.00
2018-05-18T07:39:39.233Z,5688.00
2018-05-18T07:40:39.217Z,5936.00
2018-05-18T07:41:41.997Z,6148.00
2018-05-18T07:42:39.191Z,6508.00
2018-05-18T07:44:39.157Z,5992.00
2018-05-18T07:45:39.132Z,6116.00
2018-05-18T07:48:39.435Z,7316.00
2018-05-18T07:50:43.009Z,7124.00
2018-05-18T07:51:39.029Z,6484.00
2018-05-18T07:52:39.010Z,7172.00
2018-05-18T07:53:39.107Z,6460.00
2018-05-18T07:54:39.293Z,6896.00
2018-05-18T07:55:38.968Z,6704.00
2018-05-18T07:56:39.106Z,7356.00
2018-05-18T07:57:38.986Z,6076.00
2018-05-18T07:58:38.920Z,6132.00
2018-05-18T07:59:38.910Z,6688.00
2018-05-18T08:00:39.208Z,6984.00
2018-05-18T08:01:38.874Z,7064.00
2018-05-18T08:02:38.906Z,7068.00
2018-05-18T08:03:38.934Z,6620.00
2018-05-18T08:04:38.814Z,6920.00
2018-05-18T08:05:38.807Z,7216.00
2018-05-18T08:06:39.095Z,6764.00
2018-05-18T08:07:38.772Z,7004.00
2018-05-18T08:08:38.799Z,7820.00
2018-05-18T08:09:38.793Z,7896.00
2018-05-18T08:10:38.731Z,7892.00
2018-05-18T08:11:38.711Z,7720.00
2018-05-18T08:13:38.978Z,7860.00
2018-05-18T08:14:38.717Z,7632.00
2018-05-18T08:15:38.692Z,7656.00
2018-05-18T08:16:38.623Z,7764.00
2018-05-18T08:17:38.621Z,8332.00
2018-05-18T08:18:38.590Z,9064.00
2018-05-18T08:19:38.884Z,9084.00
2018-05-18T08:20:38.623Z,9544.00
2018-05-18T08:21:38.673Z,9316.00
2018-05-18T08:22:38.553Z,10052.00
2018-05-18T08:23:38.518Z,8972.00
2018-05-18T08:24:38.511Z,9864.00
2018-05-18T08:25:38.804Z,9920.00
2018-05-18T08:26:38.524Z,9788.00
2018-05-18T08:28:38.532Z,10084.00
2018-05-18T08:29:38.466Z,9012.00
2018-05-18T08:30:38.400Z,9748.00
2018-05-18T08:31:38.691Z,9516.00
2018-05-18T08:32:38.428Z,11372.00
2018-05-18T08:33:38.363Z,12128.00
2018-05-18T08:34:38.493Z,11380.00
2018-05-18T08:36:38.305Z,10356.00
2018-05-18T08:37:38.613Z,10296.00
2018-05-18T08:38:38.326Z,10876.00
2018-05-18T08:39:38.267Z,11252.00
2018-05-18T08:40:38.302Z,11340.00
2018-05-18T08:41:38.288Z,11120.00
2018-05-18T08:42:38.225Z,10212.00
2018-05-18T08:43:38.507Z,9876.00
2018-05-18T08:44:38.190Z,10232.00
2018-05-18T08:45:38.185Z,9796.00
2018-05-18T08:46:38.589Z,9880.00
2018-05-18T08:47:38.192Z,9168.00
2018-05-18T08:48:38.141Z,9144.00
2018-05-18T08:49:38.428Z,8912.00
2018-05-18T08:50:38.103Z,9344.00
2018-05-18T08:51:38.078Z,9404.00
2018-05-18T08:52:38.304Z,9256.00
2018-05-18T08:53:38.181Z,9044.00
2018-05-18T08:54:38.046Z,8860.00
2018-05-18T08:55:39.649Z,8904.00
2018-05-18T08:57:37.998Z,9636.00
2018-05-18T08:58:38.037Z,9404.00
2018-05-18T08:59:38.013Z,9540.00
2018-05-18T09:00:38.096Z,9832.00
2018-05-18T09:01:37.936Z,9996.00
2018-05-18T09:02:38.217Z,10048.00
2018-05-18T09:03:37.912Z,11656.00
2018-05-18T09:04:37.894Z,10336.00
2018-05-18T09:05:37.876Z,10428.00
2018-05-18T09:06:39.112Z,10980.00
2018-05-18T09:08:38.186Z,9588.00
2018-05-18T09:09:37.813Z,9364.00
2018-05-18T09:10:37.813Z,9308.00
2018-05-18T09:11:37.781Z,9080.00
2018-05-18T09:12:37.832Z,9508.00
2018-05-18T09:13:38.286Z,8680.00
2018-05-18T09:14:38.042Z,8360.00
2018-05-18T09:15:37.721Z,8388.00
2018-05-18T09:16:38.168Z,8988.00
2018-05-18T09:17:37.716Z,9076.00
2018-05-18T09:18:37.832Z,8744.00
2018-05-18T09:20:37.952Z,9424.00
2018-05-18T09:21:39.663Z,10092.00
2018-05-18T09:22:37.680Z,9244.00
2018-05-18T09:23:37.652Z,8584.00
2018-05-18T09:24:41.255Z,9096.00
2018-05-18T09:25:37.588Z,9180.00
2018-05-18T09:26:37.866Z,10232.00
2018-05-18T09:27:37.541Z,10960.00
2018-05-18T09:28:37.697Z,10472.00
2018-05-18T09:29:37.539Z,11456.00
2018-05-18T09:30:37.548Z,10744.00
2018-05-18T09:31:37.638Z,9992.00
2018-05-18T09:32:37.767Z,9956.00
2018-05-18T09:33:37.497Z,9912.00
2018-05-18T09:34:37.569Z,10324.00
2018-05-18T09:35:38.484Z,11440.00
2018-05-18T09:36:37.472Z,11788.00
2018-05-18T09:37:37.449Z,12120.00
2018-05-18T09:38:37.744Z,12864.00
2018-05-18T09:39:37.382Z,13368.00
2018-05-18T09:40:37.362Z,13612.00
2018-05-18T09:41:37.433Z,12704.00
2018-05-18T09:42:37.432Z,11564.00
2018-05-18T09:43:37.361Z,11460.00
2018-05-18T09:44:37.591Z,11972.00
2018-05-18T09:45:37.361Z,12028.00
2018-05-18T09:46:37.271Z,10796.00
2018-05-18T09:47:37.260Z,9880.00
2018-05-18T09:48:37.285Z,10564.00
2018-05-18T09:49:37.377Z,11256.00
2018-05-18T09:50:37.389Z,11132.00
2018-05-18T09:51:37.494Z,11224.00
2018-05-18T09:52:37.188Z,11580.00
2018-05-18T09:53:37.165Z,12344.00
2018-05-18T09:54:37.204Z,13112.00
2018-05-18T09:55:37.279Z,14020.00
2018-05-18T09:56:37.238Z,13832.00
2018-05-18T09:57:37.459Z,13880.00
2018-05-18T09:58:37.097Z,14800.00
2018-05-18T09:59:37.081Z,15016.00
2018-05-18T10:00:37.107Z,14900.00
2018-05-18T10:01:37.053Z,13724.00
2018-05-18T10:02:37.090Z,13380.00
2018-05-18T10:03:37.689Z,13892.00
2018-05-18T10:04:37.013Z,15152.00
2018-05-18T10:05:37.095Z,16316.00
2018-05-18T10:07:36.961Z,14644.00
2018-05-18T10:08:38.341Z,14600.00
2018-05-18T10:09:37.407Z,14428.00
2018-05-18T10:11:36.965Z,15968.00
2018-05-18T10:12:36.891Z,17472.00
2018-05-18T10:13:36.872Z,18624.00
2018-05-18T10:14:36.875Z,16608.00
2018-05-18T10:15:37.207Z,14832.00
2018-05-18T10:16:36.940Z,14408.00
2018-05-18T10:17:36.869Z,15188.00
2018-05-18T10:18:36.832Z,13308.00
2018-05-18T10:19:36.803Z,11416.00
2018-05-18T10:20:36.791Z,11660.00
2018-05-18T10:21:37.115Z,12212.00
2018-05-18T10:22:36.906Z,13332.00
2018-05-18T10:23:36.735Z,12576.00
2018-05-18T10:24:36.737Z,12192.00
2018-05-18T10:25:36.723Z,12164.00
2018-05-18T10:26:36.753Z,12992.00
2018-05-18T10:27:37.416Z,14244.00
2018-05-18T10:28:36.912Z,14536.00
2018-05-18T10:29:36.654Z,13416.00
2018-05-18T10:30:36.700Z,12684.00
2018-05-18T10:31:36.648Z,13428.00
2018-05-18T10:32:36.672Z,15120.00
2018-05-18T10:33:36.979Z,15376.00
2018-05-18T10:34:36.647Z,16896.00
2018-05-18T10:35:36.586Z,12144.00
2018-05-18T10:36:36.574Z,12040.00
2018-05-18T10:37:36.544Z,12288.00
2018-05-18T10:38:36.545Z,12108.00
2018-05-18T10:39:36.577Z,11936.00
2018-05-18T10:40:36.862Z,12336.00
2018-05-18T10:41:36.502Z,12908.00
2018-05-18T10:42:36.483Z,12140.00
2018-05-18T10:43:36.573Z,11196.00
2018-05-18T10:45:36.493Z,11440.00
2018-05-18T10:46:36.773Z,11116.00
2018-05-18T10:47:36.474Z,11824.00
2018-05-18T10:48:36.404Z,11172.00
2018-05-18T10:49:36.382Z,10388.00
2018-05-18T10:50:36.385Z,9908.00
2018-05-18T10:51:36.366Z,10524.00
2018-05-18T10:52:36.696Z,11444.00
2018-05-18T10:53:36.587Z,11048.00
2018-05-18T10:54:36.551Z,10220.00
2018-05-18T10:55:36.311Z,10432.00
2018-05-18T10:56:36.291Z,10824.00
2018-05-18T10:57:36.285Z,11728.00
2018-05-18T10:58:36.340Z,12408.00
2018-05-18T10:59:36.605Z,12228.00
2018-05-18T11:00:36.502Z,11440.00
2018-05-18T11:01:36.456Z,10788.00
2018-05-18T11:02:36.512Z,10932.00
2018-05-18T11:03:36.190Z,10944.00
2018-05-18T11:04:36.273Z,11320.00
2018-05-18T11:05:36.177Z,11680.00
2018-05-18T11:06:37.828Z,12928.00
2018-05-18T11:07:36.171Z,11972.00
2018-05-18T11:08:36.494Z,11240.00
2018-05-18T11:09:36.116Z,10776.00
2018-05-18T11:10:36.102Z,10848.00
2018-05-18T11:11:36.083Z,11628.00
2018-05-18T11:12:36.436Z,11676.00
2018-05-18T11:13:36.111Z,11424.00
2018-05-18T11:14:36.189Z,11756.00
2018-05-18T11:15:36.035Z,10316.00
2018-05-18T11:16:36.012Z,11508.00
2018-05-18T11:18:36.344Z,13132.00
2018-05-18T11:19:36.130Z,13848.00
2018-05-18T11:20:35.970Z,14836.00
2018-05-18T11:21:35.954Z,14292.00
2018-05-18T11:22:36.040Z,12740.00
2018-05-18T11:23:35.926Z,12304.00
2018-05-18T11:24:36.094Z,11800.00
2018-05-18T11:25:35.956Z,14608.00
2018-05-18T11:26:35.932Z,15108.00
2018-05-18T11:27:36.040Z,15552.00
2018-05-18T11:28:35.976Z,16192.00
2018-05-18T11:29:36.326Z,18144.00
2018-05-18T11:30:35.834Z,18976.00
2018-05-18T11:31:35.812Z,18240.00
2018-05-18T11:32:35.863Z,17472.00
2018-05-18T11:33:35.848Z,16608.00
2018-05-18T11:34:36.099Z,17376.00
2018-05-18T11:35:35.767Z,17440.00
2018-05-18T11:36:36.056Z,14304.00
2018-05-18T11:37:35.734Z,14568.00
2018-05-18T11:38:35.782Z,14736.00
2018-05-18T11:39:35.773Z,15616.00
2018-05-18T11:40:35.798Z,14896.00
2018-05-18T11:41:35.701Z,14868.00
2018-05-18T11:42:35.984Z,15552.00
2018-05-18T11:43:35.667Z,15160.00
2018-05-18T11:44:35.644Z,13592.00
2018-05-18T11:45:36.132Z,13104.00
2018-05-18T11:46:35.669Z,13796.00
2018-05-18T11:47:36.002Z,15520.00
2018-05-18T11:48:35.893Z,15360.00
2018-05-18T11:49:35.656Z,14972.00
2018-05-18T11:50:35.590Z,14812.00
2018-05-18T11:51:35.576Z,13900.00
2018-05-18T11:52:35.600Z,14808.00
2018-05-18T11:53:35.603Z,15648.00
2018-05-18T11:54:35.922Z,15808.00
2018-05-18T11:55:35.513Z,14828.00
2018-05-18T11:56:35.500Z,13632.00
2018-05-18T11:57:35.487Z,15040.00
2018-05-18T11:58:35.574Z,16000.00
2018-05-18T11:59:35.509Z,16224.00
2018-05-18T12:00:35.811Z,16512.00
2018-05-18T12:01:35.432Z,15584.00
2018-05-18T12:02:35.427Z,15328.00
2018-05-18T12:03:35.404Z,17376.00
2018-05-18T12:04:35.449Z,17856.00
2018-05-18T12:05:35.479Z,16832.00
2018-05-18T12:06:35.903Z,14312.00
2018-05-18T12:07:35.369Z,12648.00
2018-05-18T12:08:35.384Z,12848.00
2018-05-18T12:09:35.330Z,15592.00
2018-05-18T12:11:35.470Z,12540.00
2018-05-18T12:12:35.599Z,13296.00
2018-05-18T12:13:35.288Z,12872.00
2018-05-18T12:14:35.276Z,11564.00
2018-05-18T12:16:35.247Z,13056.00
2018-05-18T12:17:35.521Z,11788.00
2018-05-18T12:18:35.532Z,13412.00
2018-05-18T12:19:35.206Z,11692.00
2018-05-18T12:21:35.183Z,12368.00
2018-05-18T12:22:35.189Z,11816.00
2018-05-18T12:23:35.291Z,13316.00
2018-05-18T12:24:35.494Z,13808.00
2018-05-18T12:25:35.136Z,13212.00
2018-05-18T12:26:35.134Z,13848.00
2018-05-18T12:27:35.110Z,13868.00
2018-05-18T12:28:35.113Z,13476.00
2018-05-18T12:29:35.133Z,13752.00
2018-05-18T12:30:35.174Z,13372.00
2018-05-18T12:31:35.686Z,12352.00
2018-05-18T12:32:35.050Z,12292.00
2018-05-18T12:33:35.039Z,12256.00
2018-05-18T12:34:35.029Z,10592.00
2018-05-18T12:35:35.014Z,11028.00
2018-05-18T12:36:35.002Z,10912.00
2018-05-18T12:37:35.132Z,11416.00
2018-05-18T12:38:35.281Z,11120.00
2018-05-18T12:39:34.965Z,11752.00
2018-05-18T12:40:34.945Z,11868.00
2018-05-18T12:41:34.936Z,11152.00
2018-05-18T12:42:34.929Z,10048.00
2018-05-18T12:43:35.013Z,9400.00
2018-05-18T12:44:34.974Z,8572.00
2018-05-18T12:45:35.245Z,8088.00
2018-05-18T12:46:34.880Z,8180.00
2018-05-18T12:47:34.865Z,7800.00
2018-05-18T12:48:34.928Z,7684.00
2018-05-18T12:49:34.839Z,7776.00
2018-05-18T12:50:34.877Z,7180.00
2018-05-18T12:51:35.162Z,6220.00
2018-05-18T12:52:34.970Z,5664.00
2018-05-18T12:53:34.798Z,5568.00
2018-05-18T12:54:34.813Z,5380.00
2018-05-18T12:55:34.765Z,5580.00
2018-05-18T12:56:34.745Z,5412.00
2018-05-18T12:57:35.087Z,5380.00
2018-05-18T12:58:34.795Z,5436.00
2018-05-18T12:59:34.733Z,5248.00
2018-05-18T13:00:34.702Z,5240.00
2018-05-18T13:01:34.734Z,5308.00
2018-05-18T13:02:34.682Z,5332.00
2018-05-18T13:03:35.012Z,5488.00
2018-05-18T13:04:34.709Z,5724.00
2018-05-18T13:05:34.623Z,5648.00
2018-05-18T13:06:34.610Z,5500.00
2018-05-18T13:07:34.607Z,5652.00
2018-05-18T13:08:34.594Z,6192.00
2018-05-18T13:09:34.922Z,6616.00
2018-05-18T13:11:34.597Z,5660.00